Costa Serena — ICAZ — position and weather

sailwx.info

Track history (hours):
 
Tides and Currents Weather Stations Pressure Air Temp Water Temp Dewpoint Dewpoint Depression Visibility Wind Speed Wind Dir Waves Ship Positions

Costa Serena

Last reported at 2018-Feb-24 23:15 UTC. Time now 2018-Feb-25 07:47 UTC.
Position N 31°25' E 121°31'.

Length 290 m.

Type: Ship. MMSI: 247187600.

Date/timePositionNaut miles runAvg speedWind from/ knotsBaromVisibWave heightAir tempDewpointWater temp
2018-Feb-24 23:15N 31°25' E 121°31'2 7.1
2018-Feb-24 22:59N 31°24' E 121°33'810.0
2018-Feb-24 22:14N 31°21' E 121°40'310.2
2018-Feb-24 21:56N 31°19' E 121°44'410.3
2018-Feb-24 21:30N 31°17' E 121°48'510.1
2018-Feb-24 21:00N 31°16' E 121°54'611.0
2018-Feb-24 20:30N 31°15' E 122°00'612.6
2018-Feb-24 20:00N 31°13' E 122°07'611.9
2018-Feb-24 19:30N 31°09' E 122°13'611.9
2018-Feb-24 19:00N 31°06' E 122°19'9513.5
2018-Feb-24 12:00N 31°30' E 124°06'32213.5 100 / 171008.4 5.4 8.4 6.4 8.4
2018-Feb-23 12:05N 33°57' E 129°47'114.0
2018-Feb-23 12:00N 33°57' E 129°48'713.6
2018-Feb-23 11:30N 33°59' E 129°56'713.6
2018-Feb-23 11:00N 34°01' E 130°04'713.5
2018-Feb-23 10:30N 34°02' E 130°12'713.2
2018-Feb-23 09:59N 34°04' E 130°20'612.9
2018-Feb-23 09:30N 34°04' E 130°27'713.1
2018-Feb-23 09:00N 34°04' E 130°35'612.9
2018-Feb-23 08:30N 34°04' E 130°43'611.8
2018-Feb-23 08:00N 33°58' E 130°46'2 4.7
2018-Feb-23 07:30N 33°56' E 130°46'0 0.1
2018-Feb-23 06:55N 33°56' E 130°46'0 0.0
2018-Feb-23 06:25N 33°56' E 130°46'0 0.0
2018-Feb-23 05:55N 33°56' E 130°46'0 0.0
2018-Feb-23 05:30N 33°56' E 130°46'0 0.0
2018-Feb-23 04:48N 33°56' E 130°46'0 0.0
2018-Feb-23 04:30N 33°56' E 130°46'0 0.0
2018-Feb-23 04:00N 33°56' E 130°46'0 0.0
2018-Feb-23 03:30N 33°56' E 130°46'0 0.0
2018-Feb-23 02:53N 33°56' E 130°46'0 0.0
2018-Feb-23 02:29N 33°56' E 130°46'0 0.0
2018-Feb-23 01:59N 33°56' E 130°46'0 0.0
2018-Feb-23 01:25N 33°56' E 130°46'0 0.0
2018-Feb-23 00:59N 33°56' E 130°46'0 0.1
2018-Feb-23 00:28N 33°56' E 130°46'0 0.1
2018-Feb-22 23:58N 33°56' E 130°46'0 0.0
2018-Feb-22 23:28N 33°56' E 130°46'0 0.1
2018-Feb-22 23:00N 33°56' E 130°46'1 1.7
2018-Feb-22 22:30N 33°57' E 130°46'510.1
2018-Feb-22 22:00N 34°02' E 130°46'611.7
2018-Feb-22 21:30N 34°07' E 130°44'814.9
2018-Feb-22 21:00N 34°14' E 130°41'714.3
2018-Feb-22 20:30N 34°21' E 130°38'714.1
2018-Feb-22 20:00N 34°28' E 130°36'714.1
2018-Feb-22 19:30N 34°34' E 130°33'38 9.2
2018-Feb-22 15:22N 34°07' E 130°02'513.6
2018-Feb-22 15:00N 34°02' E 130°04'713.5
2018-Feb-22 14:30N 33°56' E 130°08'713.2
2018-Feb-22 14:01N 33°50' E 130°11'713.1
2018-Feb-22 13:31N 33°44' E 130°14'714.5
2018-Feb-22 13:00N 33°38' E 130°19'4 7.9
2018-Feb-22 12:29N 33°37' E 130°24'0 0.0
2018-Feb-22 11:59N 33°37' E 130°24'0 0.0
2018-Feb-22 11:29N 33°37' E 130°24'0 0.0
2018-Feb-22 10:58N 33°37' E 130°24'0 0.0
2018-Feb-22 10:28N 33°37' E 130°24'0 0.0
2018-Feb-22 09:58N 33°37' E 130°24'0 0.0
2018-Feb-22 09:28N 33°37' E 130°24'0 0.0
2018-Feb-22 08:58N 33°37' E 130°24'0 0.0
2018-Feb-22 08:30N 33°37' E 130°24'0 0.0
2018-Feb-22 08:00N 33°37' E 130°24'0 0.0
2018-Feb-22 07:30N 33°37' E 130°24'0 0.0
2018-Feb-22 07:00N 33°37' E 130°24'0 0.0
2018-Feb-22 06:29N 33°37' E 130°24'0 0.0
2018-Feb-22 05:59N 33°37' E 130°24'0 0.0
2018-Feb-22 05:29N 33°37' E 130°24'0 0.0
2018-Feb-22 04:59N 33°37' E 130°24'0 0.0
2018-Feb-22 04:29N 33°37' E 130°24'0 0.0
2018-Feb-22 03:58N 33°37' E 130°24'0 0.0
2018-Feb-22 03:28N 33°37' E 130°24'0 0.0
2018-Feb-22 02:58N 33°37' E 130°24'0 0.0
2018-Feb-22 02:28N 33°37' E 130°24'0 0.0
2018-Feb-22 01:57N 33°37' E 130°24'0 0.0
2018-Feb-22 01:27N 33°37' E 130°24'0 0.0
2018-Feb-22 00:57N 33°37' E 130°24'0 0.0
2018-Feb-22 00:27N 33°37' E 130°24'0 0.0
2018-Feb-21 23:57N 33°37' E 130°24'0 0.0
2018-Feb-21 23:26N 33°37' E 130°24'0 0.0
2018-Feb-21 22:56N 33°37' E 130°24'0 0.0
2018-Feb-21 22:26N 33°37' E 130°24'0 0.1
2018-Feb-21 22:00N 33°37' E 130°24'1 1.5
2018-Feb-21 21:30N 33°37' E 130°23'510.0
2018-Feb-21 21:00N 33°39' E 130°18'611.1
2018-Feb-21 20:30N 33°44' E 130°15'918.1
2018-Feb-21 20:00N 33°51' E 130°08'917.7
2018-Feb-21 19:30N 33°55' E 129°58'12614.8
2018-Feb-21 11:00N 33°00' E 127°42'29112.5 360 / 281008.4 2.2 8.4 6.410.4
2018-Feb-20 11:48N 31°06' E 122°26'515.1
2018-Feb-20 11:26N 31°06' E 122°20'614.3
2018-Feb-20 11:00N 31°09' E 122°13'1714.4
2018-Feb-20 09:49N 31°15' E 121°55'615.1
2018-Feb-20 09:26N 31°17' E 121°49'7 0.5
2018-Feb-19 18:02N 31°20' E 121°41'310.2
2018-Feb-19 17:47N 31°19' E 121°44'311.3
2018-Feb-19 17:31N 31°18' E 121°47'611.2
2018-Feb-19 17:00N 31°16' E 121°53'510.4
2018-Feb-19 16:30N 31°15' E 121°59'612.1
2018-Feb-19 16:00N 31°14' E 122°06'611.3
2018-Feb-19 15:31N 31°10' E 122°11'612.5
2018-Feb-19 15:00N 31°07' E 122°17'612.1
2018-Feb-19 14:30N 31°07' E 122°24'710.0
2018-Feb-19 13:48N 31°07' E 122°33'18 6.5
2018-Feb-19 11:00N 31°06' E 122°54'38716.1 040 / 261008.2 5.4 8.4 8.410.4
2018-Feb-18 11:00N 33°54' E 129°48'739.4 040 / 101006.7 5.4 10.7 6.910.7
2018-Feb-18 10:48N 33°55' E 129°57'618.8
2018-Feb-18 10:28N 33°53' E 130°04'919.0
2018-Feb-18 10:00N 33°47' E 130°11'917.6
2018-Feb-18 09:30N 33°40' E 130°17'611.5
2018-Feb-18 09:00N 33°37' E 130°23'1 1.3
2018-Feb-18 08:25N 33°37' E 130°24'0 0.0
2018-Feb-18 07:55N 33°37' E 130°24'0 0.0
2018-Feb-18 07:25N 33°37' E 130°24'0 0.0
2018-Feb-18 07:00N 33°37' E 130°24'0 0.0
2018-Feb-18 06:27N 33°37' E 130°24'0 0.0
2018-Feb-18 05:57N 33°37' E 130°24'0 0.0
2018-Feb-18 05:27N 33°37' E 130°24'0 0.0
2018-Feb-18 04:56N 33°37' E 130°24'0 0.0
2018-Feb-18 04:26N 33°37' E 130°24'0 0.0
2018-Feb-18 03:56N 33°37' E 130°24'0 0.0
2018-Feb-18 03:26N 33°37' E 130°24'0 0.0
2018-Feb-18 02:55N 33°37' E 130°24'0 0.0
2018-Feb-18 02:25N 33°37' E 130°24'0 0.0
2018-Feb-18 01:55N 33°37' E 130°24'0 0.0
2018-Feb-18 01:25N 33°37' E 130°24'0 0.0
2018-Feb-18 00:55N 33°37' E 130°24'0 0.0
2018-Feb-18 00:30N 33°37' E 130°24'0 0.0
2018-Feb-18 00:00N 33°37' E 130°24'0 0.0
2018-Feb-17 23:30N 33°37' E 130°24'0 0.0
2018-Feb-17 23:00N 33°37' E 130°24'0 0.0
2018-Feb-17 22:30N 33°37' E 130°24'0 0.0
2018-Feb-17 22:00N 33°37' E 130°24'0 0.3
2018-Feb-17 21:30N 33°37' E 130°24'4 8.0
2018-Feb-17 21:00N 33°39' E 130°19'510.5
2018-Feb-17 20:30N 33°43' E 130°15'612.7
2018-Feb-17 20:00N 33°48' E 130°11'713.7
2018-Feb-17 19:30N 33°53' E 130°05'612.8
2018-Feb-17 19:00N 33°55' E 129°58'813.5
2018-Feb-17 18:27N 33°55' E 129°49'69 9.3
2018-Feb-17 11:00N 32°48' E 129°30'52421.8 350 / 181022.410.8 9.7 9.715.7
2018-Feb-16 11:00N 31°06' E 139°36'56023.3 030 / 121013.7 2.2 11.4 3.110.4
2018-Feb-15 11:00N 32°06' E 128°42'   170 / 201004.7 2.2 7.7 3.517.2
Track history (hours):
 
Tides and Currents Weather Stations Pressure Air Temp Water Temp Dewpoint Dewpoint Depression Visibility Wind Speed Wind Dir Waves Ship Positions

Costa Serena

Last reported at 2018-Feb-24 23:15 UTC. Time now 2018-Feb-25 07:47 UTC.
Position N 31°25' E 121°31'.

Length 290 m.

Type: Ship. MMSI: 247187600.

Date/timePositionNaut miles runAvg speedWind from/ knotsBaromVisibWave heightAir tempDewpointWater temp
2018-Feb-24 23:15N 31°25' E 121°31'2 7.1
2018-Feb-24 22:59N 31°24' E 121°33'810.0
2018-Feb-24 22:14N 31°21' E 121°40'310.2
2018-Feb-24 21:56N 31°19' E 121°44'410.3
2018-Feb-24 21:30N 31°17' E 121°48'510.1
2018-Feb-24 21:00N 31°16' E 121°54'611.0
2018-Feb-24 20:30N 31°15' E 122°00'612.6
2018-Feb-24 20:00N 31°13' E 122°07'611.9
2018-Feb-24 19:30N 31°09' E 122°13'611.9
2018-Feb-24 19:00N 31°06' E 122°19'9513.5
2018-Feb-24 12:00N 31°30' E 124°06'32213.5 100 / 171008.4 5.4 8.4 6.4 8.4
2018-Feb-23 12:05N 33°57' E 129°47'114.0
2018-Feb-23 12:00N 33°57' E 129°48'713.6
2018-Feb-23 11:30N 33°59' E 129°56'713.6
2018-Feb-23 11:00N 34°01' E 130°04'713.5
2018-Feb-23 10:30N 34°02' E 130°12'713.2
2018-Feb-23 09:59N 34°04' E 130°20'612.9
2018-Feb-23 09:30N 34°04' E 130°27'713.1
2018-Feb-23 09:00N 34°04' E 130°35'612.9
2018-Feb-23 08:30N 34°04' E 130°43'611.8
2018-Feb-23 08:00N 33°58' E 130°46'2 4.7
2018-Feb-23 07:30N 33°56' E 130°46'0 0.1
2018-Feb-23 06:55N 33°56' E 130°46'0 0.0
2018-Feb-23 06:25N 33°56' E 130°46'0 0.0
2018-Feb-23 05:55N 33°56' E 130°46'0 0.0
2018-Feb-23 05:30N 33°56' E 130°46'0 0.0
2018-Feb-23 04:48N 33°56' E 130°46'0 0.0
2018-Feb-23 04:30N 33°56' E 130°46'0 0.0
2018-Feb-23 04:00N 33°56' E 130°46'0 0.0
2018-Feb-23 03:30N 33°56' E 130°46'0 0.0
2018-Feb-23 02:53N 33°56' E 130°46'0 0.0
2018-Feb-23 02:29N 33°56' E 130°46'0 0.0
2018-Feb-23 01:59N 33°56' E 130°46'0 0.0
2018-Feb-23 01:25N 33°56' E 130°46'0 0.0
2018-Feb-23 00:59N 33°56' E 130°46'0 0.1
2018-Feb-23 00:28N 33°56' E 130°46'0 0.1
2018-Feb-22 23:58N 33°56' E 130°46'0 0.0
2018-Feb-22 23:28N 33°56' E 130°46'0 0.1
2018-Feb-22 23:00N 33°56' E 130°46'1 1.7
2018-Feb-22 22:30N 33°57' E 130°46'510.1
2018-Feb-22 22:00N 34°02' E 130°46'611.7
2018-Feb-22 21:30N 34°07' E 130°44'814.9
2018-Feb-22 21:00N 34°14' E 130°41'714.3
2018-Feb-22 20:30N 34°21' E 130°38'714.1
2018-Feb-22 20:00N 34°28' E 130°36'714.1
2018-Feb-22 19:30N 34°34' E 130°33'38 9.2
2018-Feb-22 15:22N 34°07' E 130°02'513.6
2018-Feb-22 15:00N 34°02' E 130°04'713.5
2018-Feb-22 14:30N 33°56' E 130°08'713.2
2018-Feb-22 14:01N 33°50' E 130°11'713.1
2018-Feb-22 13:31N 33°44' E 130°14'714.5
2018-Feb-22 13:00N 33°38' E 130°19'4 7.9
2018-Feb-22 12:29N 33°37' E 130°24'0 0.0
2018-Feb-22 11:59N 33°37' E 130°24'0 0.0
2018-Feb-22 11:29N 33°37' E 130°24'0 0.0
2018-Feb-22 10:58N 33°37' E 130°24'0 0.0
2018-Feb-22 10:28N 33°37' E 130°24'0 0.0
2018-Feb-22 09:58N 33°37' E 130°24'0 0.0
2018-Feb-22 09:28N 33°37' E 130°24'0 0.0
2018-Feb-22 08:58N 33°37' E 130°24'0 0.0
2018-Feb-22 08:30N 33°37' E 130°24'0 0.0
2018-Feb-22 08:00N 33°37' E 130°24'0 0.0
2018-Feb-22 07:30N 33°37' E 130°24'0 0.0
2018-Feb-22 07:00N 33°37' E 130°24'0 0.0
2018-Feb-22 06:29N 33°37' E 130°24'0 0.0
2018-Feb-22 05:59N 33°37' E 130°24'0 0.0
2018-Feb-22 05:29N 33°37' E 130°24'0 0.0
2018-Feb-22 04:59N 33°37' E 130°24'0 0.0
2018-Feb-22 04:29N 33°37' E 130°24'0 0.0
2018-Feb-22 03:58N 33°37' E 130°24'0 0.0
2018-Feb-22 03:28N 33°37' E 130°24'0 0.0
2018-Feb-22 02:58N 33°37' E 130°24'0 0.0
2018-Feb-22 02:28N 33°37' E 130°24'0 0.0
2018-Feb-22 01:57N 33°37' E 130°24'0 0.0
2018-Feb-22 01:27N 33°37' E 130°24'0 0.0
2018-Feb-22 00:57N 33°37' E 130°24'0 0.0
2018-Feb-22 00:27N 33°37' E 130°24'0 0.0
2018-Feb-21 23:57N 33°37' E 130°24'0 0.0
2018-Feb-21 23:26N 33°37' E 130°24'0 0.0
2018-Feb-21 22:56N 33°37' E 130°24'0 0.0
2018-Feb-21 22:26N 33°37' E 130°24'0 0.1
2018-Feb-21 22:00N 33°37' E 130°24'1 1.5
2018-Feb-21 21:30N 33°37' E 130°23'510.0
2018-Feb-21 21:00N 33°39' E 130°18'611.1
2018-Feb-21 20:30N 33°44' E 130°15'918.1
2018-Feb-21 20:00N 33°51' E 130°08'917.7
2018-Feb-21 19:30N 33°55' E 129°58'12614.8
2018-Feb-21 11:00N 33°00' E 127°42'29112.5 360 / 281008.4 2.2 8.4 6.410.4
2018-Feb-20 11:48N 31°06' E 122°26'515.1
2018-Feb-20 11:26N 31°06' E 122°20'614.3
2018-Feb-20 11:00N 31°09' E 122°13'1714.4
2018-Feb-20 09:49N 31°15' E 121°55'615.1
2018-Feb-20 09:26N 31°17' E 121°49'7 0.5
2018-Feb-19 18:02N 31°20' E 121°41'310.2
2018-Feb-19 17:47N 31°19' E 121°44'311.3
2018-Feb-19 17:31N 31°18' E 121°47'611.2
2018-Feb-19 17:00N 31°16' E 121°53'510.4
2018-Feb-19 16:30N 31°15' E 121°59'612.1
2018-Feb-19 16:00N 31°14' E 122°06'611.3
2018-Feb-19 15:31N 31°10' E 122°11'612.5
2018-Feb-19 15:00N 31°07' E 122°17'612.1
2018-Feb-19 14:30N 31°07' E 122°24'710.0
2018-Feb-19 13:48N 31°07' E 122°33'18 6.5
2018-Feb-19 11:00N 31°06' E 122°54'38716.1 040 / 261008.2 5.4 8.4 8.410.4
2018-Feb-18 11:00N 33°54' E 129°48'739.4 040 / 101006.7 5.4 10.7 6.910.7
2018-Feb-18 10:48N 33°55' E 129°57'618.8
2018-Feb-18 10:28N 33°53' E 130°04'919.0
2018-Feb-18 10:00N 33°47' E 130°11'917.6
2018-Feb-18 09:30N 33°40' E 130°17'611.5
2018-Feb-18 09:00N 33°37' E 130°23'1 1.3
2018-Feb-18 08:25N 33°37' E 130°24'0 0.0
2018-Feb-18 07:55N 33°37' E 130°24'0 0.0
2018-Feb-18 07:25N 33°37' E 130°24'0 0.0
2018-Feb-18 07:00N 33°37' E 130°24'0 0.0
2018-Feb-18 06:27N 33°37' E 130°24'0 0.0
2018-Feb-18 05:57N 33°37' E 130°24'0 0.0
2018-Feb-18 05:27N 33°37' E 130°24'0 0.0
2018-Feb-18 04:56N 33°37' E 130°24'0 0.0
2018-Feb-18 04:26N 33°37' E 130°24'0 0.0
2018-Feb-18 03:56N 33°37' E 130°24'0 0.0
2018-Feb-18 03:26N 33°37' E 130°24'0 0.0
2018-Feb-18 02:55N 33°37' E 130°24'0 0.0
2018-Feb-18 02:25N 33°37' E 130°24'0 0.0
2018-Feb-18 01:55N 33°37' E 130°24'0 0.0
2018-Feb-18 01:25N 33°37' E 130°24'0 0.0
2018-Feb-18 00:55N 33°37' E 130°24'0 0.0
2018-Feb-18 00:30N 33°37' E 130°24'0 0.0
2018-Feb-18 00:00N 33°37' E 130°24'0 0.0
2018-Feb-17 23:30N 33°37' E 130°24'0 0.0
2018-Feb-17 23:00N 33°37' E 130°24'0 0.0
2018-Feb-17 22:30N 33°37' E 130°24'0 0.0
2018-Feb-17 22:00N 33°37' E 130°24'0 0.3
2018-Feb-17 21:30N 33°37' E 130°24'4 8.0
2018-Feb-17 21:00N 33°39' E 130°19'510.5
2018-Feb-17 20:30N 33°43' E 130°15'612.7
2018-Feb-17 20:00N 33°48' E 130°11'713.7
2018-Feb-17 19:30N 33°53' E 130°05'612.8
2018-Feb-17 19:00N 33°55' E 129°58'813.5
2018-Feb-17 18:27N 33°55' E 129°49'69 9.3
2018-Feb-17 11:00N 32°48' E 129°30'52421.8 350 / 181022.410.8 9.7 9.715.7
2018-Feb-16 11:00N 31°06' E 139°36'56023.3 030 / 121013.7 2.2 11.4 3.110.4
2018-Feb-15 11:00N 32°06' E 128°42'   170 / 201004.7 2.2 7.7 3.517.2

Dump ship's entire track history